Time;durP1;ratioP1;P1;durP2;ratioP2;P2;SDS_P1;SDS_P2;PMS_P1;PMS_P2;Temp;Humidity;BMP_temperature;BMP_pressure;BME280_temperature;BME280_humidity;BME280_pressure;Samples;Min_cycle;Max_cycle;Signal;HPM_P1;HPM_P2
2023/08/21 00:02:22;;;;;;;1.30;1.20;;;23.80;65.70;;;;;;5072361;28;20214;-58
2023/08/21 00:04:48;;;;;;;1.40;1.10;;;23.80;65.60;;;;;;5072862;28;20170;-58
2023/08/21 00:07:13;;;;;;;1.80;1.20;;;23.80;65.60;;;;;;5072706;28;20270;-58
2023/08/21 00:09:39;;;;;;;1.80;0.90;;;23.80;66.50;;;;;;5072346;28;20253;-58
2023/08/21 00:12:05;;;;;;;2.13;0.80;;;23.80;65.60;;;;;;5072675;28;20181;-58
2023/08/21 00:14:31;;;;;;;0.90;0.80;;;23.80;65.70;;;;;;5072803;28;20174;-56
2023/08/21 00:16:56;;;;;;;1.05;0.75;;;23.80;65.60;;;;;;5072154;28;20661;-58
2023/08/21 00:19:22;;;;;;;2.13;1.10;;;23.80;65.60;;;;;;5072739;28;20216;-58
2023/08/21 00:21:47;;;;;;;1.35;1.00;;;23.80;65.60;;;;;;5072822;28;20203;-58
2023/08/21 00:24:13;;;;;;;1.20;1.10;;;23.90;65.70;;;;;;5071735;28;20179;-58
2023/08/21 00:26:38;;;;;;;1.83;0.98;;;23.80;65.60;;;;;;5072951;28;20174;-56
2023/08/21 00:29:04;;;;;;;1.35;0.90;;;23.80;65.60;;;;;;5071594;28;20170;-56
2023/08/21 00:31:29;;;;;;;1.25;0.88;;;23.80;66.40;;;;;;5072593;28;20178;-57
2023/08/21 00:33:55;;;;;;;1.20;1.10;;;23.80;65.60;;;;;;5072848;28;20175;-57
2023/08/21 00:36:20;;;;;;;1.83;1.15;;;23.80;65.60;;;;;;5071549;28;20181;-57
2023/08/21 00:38:47;;;;;;;2.05;1.15;;;23.80;65.60;;;;;;5072866;28;20253;-58
2023/08/21 00:41:12;;;;;;;1.75;1.30;;;23.90;65.70;;;;;;5072280;28;20506;-58
2023/08/21 00:43:38;;;;;;;2.00;1.00;;;23.80;65.60;;;;;;5071628;28;20220;-58
2023/08/21 00:46:04;;;;;;;1.60;0.70;;;23.80;65.60;;;;;;5072070;28;20214;-58
2023/08/21 00:48:29;;;;;;;1.25;1.00;;;23.80;65.60;;;;;;5072623;28;20170;-58
2023/08/21 00:50:55;;;;;;;1.58;0.60;;;23.80;65.60;;;;;;5054005;28;20530;-57
2023/08/21 00:53:20;;;;;;;1.70;1.20;;;23.80;65.60;;;;;;5071115;28;20516;-57
2023/08/21 00:55:46;;;;;;;3.13;1.10;;;23.80;65.70;;;;;;5054696;28;20170;-57
2023/08/21 00:58:12;;;;;;;1.88;0.93;;;23.70;65.50;;;;;;5074137;28;20253;-56
2023/08/21 01:00:38;;;;;;;2.30;1.00;;;23.80;65.60;;;;;;5075500;28;20178;-58
2023/08/21 01:03:03;;;;;;;2.28;1.00;;;23.80;65.60;;;;;;5074708;28;20214;-58
2023/08/21 01:05:29;;;;;;;0.85;0.85;;;23.80;65.60;;;;;;5075752;28;20201;-58
2023/08/21 01:08:03;;;;;;;1.15;1.00;;;23.70;65.50;;;;;;5076287;28;20170;-58
2023/08/21 01:10:50;;;;;;;1.13;1.00;;;23.80;65.60;;;;;;5074968;28;20261;-58
2023/08/21 01:13:48;;;;;;;1.13;0.90;;;23.70;65.50;;;;;;5075195;28;20239;-57
2023/08/21 01:16:14;;;;;;;1.48;0.80;;;23.70;65.50;;;;;;5074575;28;20178;-58
2023/08/21 01:18:39;;;;;;;2.13;1.08;;;23.70;65.50;;;;;;5074132;28;20529;-58
2023/08/21 01:21:05;;;;;;;1.58;1.05;;;23.80;65.60;;;;;;5057613;28;20175;-58
2023/08/21 01:23:37;;;;;;;2.50;1.13;;;23.70;65.50;;;;;;5058089;28;20216;-58
2023/08/21 01:26:03;;;;;;;2.00;0.90;;;23.70;65.50;;;;;;5075097;28;20171;-57
2023/08/21 01:28:29;;;;;;;1.85;1.10;;;23.70;65.50;;;;;;5075869;28;20186;-55
2023/08/21 01:31:08;;;;;;;1.95;1.20;;;23.70;65.50;;;;;;5075820;28;20546;-56
2023/08/21 01:33:35;;;;;;;1.08;0.98;;;23.70;65.50;;;;;;5058682;28;20576;-57
2023/08/21 01:36:01;;;;;;;1.55;1.08;;;23.70;65.50;;;;;;5074256;28;20174;-57
2023/08/21 01:38:26;;;;;;;2.15;0.90;;;23.70;65.50;;;;;;5058009;28;20219;-58
2023/08/21 01:40:53;;;;;;;1.10;0.90;;;23.70;65.50;;;;;;5075020;28;20170;-58
2023/08/21 01:43:20;;;;;;;1.35;1.00;;;23.70;65.50;;;;;;5075207;28;20218;-58
2023/08/21 01:45:46;;;;;;;1.90;1.15;;;23.80;66.40;;;;;;5075343;28;20222;-58
2023/08/21 01:48:11;;;;;;;1.92;1.02;;;23.70;65.50;;;;;;5072941;28;20197;-58
2023/08/21 01:50:37;;;;;;;1.25;1.00;;;23.70;65.50;;;;;;5075727;28;20559;-57
2023/08/21 01:53:08;;;;;;;1.45;1.13;;;23.70;65.50;;;;;;5075296;28;20175;-56
2023/08/21 01:55:34;;;;;;;1.90;0.95;;;23.70;65.50;;;;;;5074686;28;20591;-57
2023/08/21 01:57:59;;;;;;;1.83;1.00;;;23.70;65.50;;;;;;5074970;28;20174;-54
2023/08/21 02:00:25;;;;;;;1.77;0.98;;;23.70;65.50;;;;;;5074414;28;20167;-56
2023/08/21 02:02:50;;;;;;;1.45;0.88;;;23.70;65.40;;;;;;5075092;28;20206;-58
2023/08/21 02:05:16;;;;;;;2.70;1.00;;;23.70;65.50;;;;;;5075071;28;20162;-59
2023/08/21 02:07:41;;;;;;;1.48;0.82;;;23.70;65.50;;;;;;5074174;28;20174;-58
2023/08/21 02:10:08;;;;;;;1.95;0.90;;;23.70;65.50;;;;;;5074893;28;20262;-58
2023/08/21 02:12:33;;;;;;;1.42;0.77;;;23.70;65.50;;;;;;5074790;28;20189;-57
2023/08/21 02:14:59;;;;;;;2.60;1.20;;;23.70;65.50;;;;;;5074022;28;20178;-58
2023/08/21 02:17:27;;;;;;;1.30;0.75;;;23.70;65.50;;;;;;5074554;28;20182;-57
2023/08/21 02:19:53;;;;;;;1.20;0.75;;;23.60;65.40;;;;;;5074869;28;20182;-58
2023/08/21 02:22:18;;;;;;;1.45;1.00;;;23.70;65.50;;;;;;5073854;28;20214;-57
2023/08/21 02:24:44;;;;;;;1.25;1.05;;;23.70;65.50;;;;;;5075832;28;20177;-61
2023/08/21 02:27:09;;;;;;;1.05;0.90;;;23.70;65.50;;;;;;5074674;28;20320;-56
2023/08/21 02:29:35;;;;;;;2.13;1.00;;;23.70;65.50;;;;;;5074240;28;20258;-58
2023/08/21 02:32:00;;;;;;;1.38;0.88;;;23.70;65.50;;;;;;5074601;28;20249;-57
2023/08/21 02:34:26;;;;;;;1.85;1.10;;;23.70;65.50;;;;;;5074891;28;20641;-57
2023/08/21 02:36:52;;;;;;;2.22;1.00;;;23.60;66.30;;;;;;5073859;28;20174;-58
2023/08/21 02:39:17;;;;;;;1.05;1.02;;;23.60;65.40;;;;;;5074304;28;20180;-58
2023/08/21 02:41:43;;;;;;;1.95;1.10;;;23.60;65.40;;;;;;5074434;28;20255;-58
2023/08/21 02:44:08;;;;;;;1.23;0.68;;;23.60;65.40;;;;;;5073223;28;20177;-58
2023/08/21 02:46:36;;;;;;;0.93;0.80;;;23.60;65.40;;;;;;5074456;28;20182;-57
2023/08/21 02:49:01;;;;;;;2.38;0.90;;;23.60;65.40;;;;;;5074374;28;20220;-57
2023/08/21 02:51:27;;;;;;;1.83;1.05;;;23.60;65.40;;;;;;5073490;28;20171;-57
2023/08/21 02:53:52;;;;;;;2.00;0.90;;;23.60;65.40;;;;;;5074396;28;20170;-58
2023/08/21 02:56:18;;;;;;;0.93;0.90;;;23.60;65.40;;;;;;5073890;28;20266;-55
2023/08/21 02:58:44;;;;;;;1.00;0.82;;;23.60;65.40;;;;;;5073417;28;20177;-57
2023/08/21 03:01:09;;;;;;;2.10;0.77;;;23.60;65.40;;;;;;5073620;28;20173;-58
2023/08/21 03:03:35;;;;;;;1.70;1.00;;;23.60;65.40;;;;;;5074097;28;20178;-58
2023/08/21 03:06:01;;;;;;;1.13;0.80;;;23.60;65.40;;;;;;5073027;28;20502;-57
2023/08/21 03:08:27;;;;;;;2.42;0.90;;;23.60;65.40;;;;;;5073772;28;20248;-58
2023/08/21 03:10:52;;;;;;;1.60;0.98;;;23.60;65.40;;;;;;5072985;28;20511;-58
2023/08/21 03:13:18;;;;;;;0.98;0.88;;;23.60;65.40;;;;;;5073435;28;20175;-56
2023/08/21 03:15:43;;;;;;;1.02;0.73;;;23.60;65.40;;;;;;5073592;28;20178;-57
2023/08/21 03:18:09;;;;;;;2.55;1.10;;;23.60;65.40;;;;;;5072801;28;20257;-56
2023/08/21 03:20:34;;;;;;;2.53;1.00;;;23.60;65.40;;;;;;5072984;28;20645;-58
2023/08/21 03:23:00;;;;;;;1.27;0.90;;;23.60;65.40;;;;;;5073293;28;20230;-56
2023/08/21 03:25:26;;;;;;;1.70;1.10;;;23.60;65.40;;;;;;5072850;28;20663;-58
2023/08/21 03:27:51;;;;;;;1.73;1.00;;;23.60;65.40;;;;;;5073541;28;20194;-56
2023/08/21 03:30:17;;;;;;;0.60;0.60;;;23.60;65.40;;;;;;5073086;28;20170;-57
2023/08/21 03:32:42;;;;;;;2.60;1.10;;;23.60;65.40;;;;;;5073010;28;20179;-58
2023/08/21 03:35:08;;;;;;;1.05;0.75;;;23.60;65.40;;;;;;5073230;28;20167;-57
2023/08/21 03:37:33;;;;;;;1.50;0.98;;;23.60;65.40;;;;;;5073460;28;20170;-58
2023/08/21 03:39:59;;;;;;;1.52;1.05;;;23.60;65.40;;;;;;5072509;28;20170;-58
2023/08/21 03:42:24;;;;;;;1.63;1.08;;;23.60;65.40;;;;;;5073272;28;20213;-58
2023/08/21 03:44:50;;;;;;;0.77;0.77;;;23.60;65.40;;;;;;5072839;28;20762;-58
2023/08/21 03:47:16;;;;;;;1.55;0.85;;;23.60;65.40;;;;;;5071383;28;20621;-57
2023/08/21 03:49:42;;;;;;;1.42;1.00;;;23.60;65.40;;;;;;5072636;28;20193;-57
2023/08/21 03:52:07;;;;;;;1.55;1.00;;;23.60;65.40;;;;;;5072359;28;20178;-57
2023/08/21 03:54:33;;;;;;;1.30;1.10;;;23.60;65.40;;;;;;5071762;28;20172;-57
2023/08/21 03:56:58;;;;;;;0.98;0.85;;;23.50;65.30;;;;;;5072366;28;20196;-58
2023/08/21 03:59:27;;;;;;;0.90;0.75;;;23.60;66.30;;;;;;5072374;28;20563;-58
2023/08/21 04:01:53;;;;;;;1.63;1.02;;;23.60;65.40;;;;;;5071711;28;20264;-58
2023/08/21 04:04:18;;;;;;;1.00;0.80;;;23.60;65.40;;;;;;5072196;28;20637;-58
2023/08/21 04:06:44;;;;;;;1.52;1.00;;;23.60;65.40;;;;;;5072554;28;20220;-58
2023/08/21 04:09:10;;;;;;;1.45;0.80;;;23.60;65.40;;;;;;5071295;28;20175;-57
2023/08/21 04:11:36;;;;;;;1.08;0.90;;;23.60;65.40;;;;;;5072051;28;20257;-58
2023/08/21 04:14:01;;;;;;;1.17;0.85;;;23.60;65.40;;;;;;5071047;28;20257;-57
2023/08/21 04:16:28;;;;;;;2.33;1.23;;;23.50;65.40;;;;;;5071880;28;20170;-58
2023/08/21 04:18:53;;;;;;;1.30;0.68;;;23.60;65.40;;;;;;5072267;28;20209;-57
2023/08/21 04:21:19;;;;;;;1.45;0.90;;;23.50;65.40;;;;;;5071176;28;20198;-58
2023/08/21 04:23:47;;;;;;;3.17;1.10;;;23.60;65.40;;;;;;5071954;28;20277;-57
2023/08/21 04:26:13;;;;;;;2.22;1.10;;;23.50;65.30;;;;;;5071574;28;20175;-55
2023/08/21 04:28:38;;;;;;;1.15;0.80;;;23.60;65.40;;;;;;5071105;28;20171;-56
2023/08/21 04:31:05;;;;;;;0.85;0.85;;;23.50;65.40;;;;;;5070179;28;20261;-57
2023/08/21 04:33:31;;;;;;;1.15;1.05;;;23.50;65.30;;;;;;5071947;28;20182;-57
2023/08/21 04:35:56;;;;;;;1.65;0.80;;;23.50;65.40;;;;;;5071159;28;20528;-57
2023/08/21 04:38:22;;;;;;;1.27;0.88;;;23.50;65.30;;;;;;5071416;28;20681;-57
2023/08/21 04:40:48;;;;;;;1.15;1.00;;;23.50;65.30;;;;;;5071872;28;20178;-58
2023/08/21 04:43:13;;;;;;;1.02;0.85;;;23.50;65.30;;;;;;5070483;28;20546;-56
2023/08/21 04:45:45;;;;;;;1.05;0.68;;;23.50;65.30;;;;;;5035622;28;1044525;-58
2023/08/21 04:48:11;;;;;;;4.55;1.00;;;23.50;65.40;;;;;;5071345;28;20186;-57
2023/08/21 04:50:36;;;;;;;0.98;0.90;;;23.50;65.30;;;;;;5071917;28;20626;-57
2023/08/21 04:53:02;;;;;;;2.05;1.02;;;23.50;65.40;;;;;;5072341;28;20175;-56
2023/08/21 04:55:27;;;;;;;1.15;0.80;;;23.50;65.30;;;;;;5072278;28;20178;-57
2023/08/21 04:57:53;;;;;;;1.40;0.77;;;23.50;65.30;;;;;;5071693;28;20179;-57
2023/08/21 05:00:18;;;;;;;1.13;0.80;;;23.50;65.30;;;;;;5072306;28;20634;-57
2023/08/21 05:02:44;;;;;;;1.27;0.93;;;23.50;65.30;;;;;;5072087;28;20665;-57
2023/08/21 05:05:10;;;;;;;1.48;0.80;;;23.50;65.30;;;;;;5031271;28;20182;-58
2023/08/21 05:07:35;;;;;;;1.10;0.70;;;23.50;65.30;;;;;;5032397;28;20184;-57
2023/08/21 05:10:01;;;;;;;1.95;0.80;;;23.50;65.30;;;;;;5032150;28;20176;-58
2023/08/21 05:12:27;;;;;;;1.08;0.68;;;23.50;65.30;;;;;;5031374;28;20682;-57
2023/08/21 05:14:53;;;;;;;0.82;0.70;;;23.50;65.30;;;;;;5032645;28;20263;-56
2023/08/21 05:17:18;;;;;;;1.80;1.10;;;23.50;65.30;;;;;;5031596;28;20179;-58
2023/08/21 05:19:44;;;;;;;1.42;1.00;;;23.50;65.30;;;;;;5032482;28;20619;-57
2023/08/21 05:22:09;;;;;;;1.55;1.00;;;23.50;65.30;;;;;;5032038;28;20295;-57
2023/08/21 05:24:35;;;;;;;1.90;0.80;;;23.50;65.20;;;;;;5031504;28;20572;-57
2023/08/21 05:27:00;;;;;;;1.02;0.90;;;23.50;65.20;;;;;;5031928;28;20175;-57
2023/08/21 05:29:26;;;;;;;2.22;1.17;;;23.50;65.20;;;;;;5032294;28;20203;-56
2023/08/21 05:31:51;;;;;;;1.75;0.80;;;23.50;65.20;;;;;;5031729;28;20179;-56
2023/08/21 05:34:17;;;;;;;2.15;1.05;;;23.50;65.30;;;;;;5031933;28;20211;-56
2023/08/21 05:36:43;;;;;;;1.52;0.90;;;23.50;65.20;;;;;;5032251;28;20254;-57
2023/08/21 05:39:08;;;;;;;1.67;0.90;;;23.50;65.20;;;;;;5031204;28;20171;-58
2023/08/21 05:41:34;;;;;;;2.63;1.02;;;23.50;65.20;;;;;;5032008;28;20196;-58
2023/08/21 05:43:59;;;;;;;0.77;0.77;;;23.50;65.20;;;;;;5035451;28;20616;-57
2023/08/21 05:46:25;;;;;;;2.50;1.00;;;23.50;65.20;;;;;;5034747;28;20277;-58
2023/08/21 05:48:50;;;;;;;1.80;0.88;;;23.50;65.20;;;;;;5035676;28;20190;-57
2023/08/21 05:51:16;;;;;;;1.13;0.65;;;23.50;65.20;;;;;;5035311;28;20170;-57
2023/08/21 05:53:41;;;;;;;1.20;1.00;;;23.60;65.20;;;;;;5034875;28;20278;-57
2023/08/21 05:56:07;;;;;;;1.67;1.00;;;23.50;65.10;;;;;;5035074;28;20259;-54
2023/08/21 05:58:32;;;;;;;1.27;0.93;;;23.50;65.10;;;;;;5035587;28;20176;-57
2023/08/21 06:00:58;;;;;;;1.88;0.95;;;23.50;65.10;;;;;;5034866;28;20172;-58
2023/08/21 06:03:24;;;;;;;1.92;1.00;;;23.50;65.10;;;;;;5035278;28;20226;-58
2023/08/21 06:05:49;;;;;;;2.38;0.82;;;23.50;65.10;;;;;;5035441;28;20583;-58
2023/08/21 06:08:15;;;;;;;0.80;0.80;;;23.50;65.10;;;;;;5034092;28;20182;-58
2023/08/21 06:10:40;;;;;;;1.15;0.75;;;23.50;65.10;;;;;;5035094;28;20184;-57
2023/08/21 06:13:06;;;;;;;1.17;0.85;;;23.50;65.10;;;;;;5034713;28;20623;-57
2023/08/21 06:15:32;;;;;;;1.02;0.93;;;23.50;65.10;;;;;;5034474;28;20176;-57
2023/08/21 06:17:58;;;;;;;1.67;1.02;;;23.50;65.10;;;;;;5034920;28;20184;-57
2023/08/21 06:20:24;;;;;;;1.90;0.70;;;23.50;65.20;;;;;;5034753;28;20317;-56
2023/08/21 06:22:49;;;;;;;1.70;0.93;;;23.50;65.10;;;;;;5034249;28;20211;-57
2023/08/21 06:25:15;;;;;;;1.05;0.80;;;23.60;66.00;;;;;;5034633;28;20662;-57
2023/08/21 06:27:41;;;;;;;0.80;0.80;;;23.60;65.10;;;;;;5034358;28;20182;-56
2023/08/21 06:30:07;;;;;;;1.60;0.90;;;23.60;65.10;;;;;;5034576;28;20164;-55
2023/08/21 06:32:32;;;;;;;1.58;0.80;;;23.60;65.00;;;;;;5034711;28;20179;-56
2023/08/21 06:34:58;;;;;;;1.50;0.90;;;23.60;65.10;;;;;;5033907;28;20175;-57
2023/08/21 06:37:24;;;;;;;0.95;0.90;;;23.60;65.10;;;;;;5034565;28;20176;-58
2023/08/21 06:39:50;;;;;;;0.95;0.68;;;23.60;65.10;;;;;;5034607;28;20191;-58
2023/08/21 06:42:16;;;;;;;0.75;0.73;;;23.60;65.20;;;;;;5033578;28;20566;-58
2023/08/21 06:44:41;;;;;;;1.05;0.85;;;23.50;65.10;;;;;;5034476;28;20216;-59
2023/08/21 06:47:07;;;;;;;1.65;0.90;;;23.60;65.30;;;;;;5034128;28;20631;-58
2023/08/21 06:49:32;;;;;;;1.33;0.75;;;23.50;65.20;;;;;;5033913;28;20523;-58
2023/08/21 06:51:59;;;;;;;1.58;0.80;;;23.60;65.30;;;;;;5034239;28;20259;-55
2023/08/21 06:54:24;;;;;;;1.33;1.02;;;23.60;65.30;;;;;;5033052;28;20229;-57
2023/08/21 06:56:50;;;;;;;0.95;0.70;;;23.60;65.20;;;;;;5033510;28;20184;-56
2023/08/21 06:59:19;;;;;;;1.65;1.10;;;23.60;65.20;;;;;;5033749;28;20327;-58
2023/08/21 07:01:44;;;;;;;1.15;0.93;;;23.60;65.20;;;;;;5034166;28;20216;-58
2023/08/21 07:04:10;;;;;;;1.27;0.70;;;23.60;65.90;;;;;;5033059;28;20172;-58
2023/08/21 07:06:35;;;;;;;1.75;0.70;;;23.60;65.10;;;;;;5034128;28;20216;-58
2023/08/21 07:09:01;;;;;;;2.15;1.15;;;23.60;65.20;;;;;;5033708;28;20523;-56
2023/08/21 07:11:27;;;;;;;0.70;0.70;;;23.60;65.20;;;;;;5033336;28;20191;-54
2023/08/21 07:13:53;;;;;;;1.65;0.93;;;23.60;65.20;;;;;;5033978;28;20242;-54
2023/08/21 07:16:18;;;;;;;3.55;0.90;;;23.60;65.20;;;;;;5034002;28;20807;-55
2023/08/21 07:18:44;;;;;;;3.00;0.90;;;23.60;66.00;;;;;;5033092;28;20207;-57
2023/08/21 07:21:10;;;;;;;2.35;1.10;;;23.60;65.20;;;;;;5033380;28;20233;-57
2023/08/21 07:23:36;;;;;;;1.85;0.90;;;23.60;65.20;;;;;;5033398;28;20200;-55
2023/08/21 07:26:03;;;;;;;1.80;1.13;;;23.70;65.20;;;;;;5032827;28;20172;-56
2023/08/21 07:28:29;;;;;;;2.13;1.00;;;23.70;65.10;;;;;;5034257;28;20187;-56
2023/08/21 07:30:58;;;;;;;3.58;1.20;;;23.70;65.00;;;;;;5033580;28;20520;-55
2023/08/21 07:33:24;;;;;;;2.92;1.05;;;23.70;64.90;;;;;;5033423;28;20663;-52
2023/08/21 07:35:58;;;;;;;1.08;0.98;;;23.80;65.00;;;;;;5033550;28;20172;-55
2023/08/21 07:38:24;;;;;;;2.42;0.95;;;23.70;65.00;;;;;;5032760;28;20289;-57
2023/08/21 07:40:49;;;;;;;1.13;0.80;;;23.80;65.00;;;;;;5033395;28;20542;-56
2023/08/21 07:43:15;;;;;;;2.20;1.10;;;23.80;64.90;;;;;;5033050;28;20690;-54
2023/08/21 07:45:40;;;;;;;2.45;0.98;;;23.80;64.80;;;;;;5032598;28;20219;-58
2023/08/21 07:48:06;;;;;;;1.73;0.90;;;23.90;64.80;;;;;;5032963;28;20186;-57
2023/08/21 07:50:32;;;;;;;1.83;0.88;;;23.80;64.80;;;;;;5033278;28;20179;-55
2023/08/21 07:52:58;;;;;;;4.13;1.42;;;23.80;64.80;;;;;;5032282;28;20186;-53
2023/08/21 07:55:23;;;;;;;1.92;1.00;;;23.80;64.80;;;;;;5033379;28;20534;-54
2023/08/21 07:57:49;;;;;;;2.45;1.38;;;23.80;64.90;;;;;;5033149;28;20179;-55
2023/08/21 08:00:15;;;;;;;1.65;0.90;;;23.80;64.90;;;;;;5032251;28;20217;-56
2023/08/21 08:02:42;;;;;;;2.83;1.23;;;23.80;65.00;;;;;;5033098;28;20690;-57
2023/08/21 08:05:09;;;;;;;1.60;0.80;;;23.80;65.00;;;;;;5032555;28;20176;-57
2023/08/21 08:07:34;;;;;;;1.52;0.85;;;23.80;65.10;;;;;;5032279;28;20191;-56
2023/08/21 08:10:00;;;;;;;0.95;0.80;;;23.80;65.10;;;;;;5032766;28;20180;-56
2023/08/21 08:12:26;;;;;;;3.00;0.98;;;23.80;65.10;;;;;;5032879;28;20271;-58
2023/08/21 08:14:52;;;;;;;2.67;1.13;;;23.80;65.10;;;;;;5032467;28;20221;-56
2023/08/21 08:17:17;;;;;;;2.03;1.10;;;23.80;65.20;;;;;;5032633;28;20567;-55
2023/08/21 08:19:43;;;;;;;3.00;0.80;;;23.80;65.10;;;;;;5032889;28;20659;-55
2023/08/21 08:22:09;;;;;;;1.88;1.05;;;23.80;65.10;;;;;;5031687;28;20681;-56
2023/08/21 08:24:35;;;;;;;1.30;1.02;;;23.80;65.20;;;;;;5032920;28;20259;-55
2023/08/21 08:27:01;;;;;;;2.88;0.98;;;23.80;65.10;;;;;;5032560;28;20263;-50
2023/08/21 08:29:27;;;;;;;0.77;0.77;;;23.80;65.10;;;;;;5032111;28;20263;-54
2023/08/21 08:31:52;;;;;;;1.38;0.90;;;23.80;65.10;;;;;;5032548;28;20263;-55
2023/08/21 08:34:21;;;;;;;2.42;0.90;;;23.90;65.20;;;;;;5031867;28;20171;-55
2023/08/21 08:36:47;;;;;;;2.58;1.13;;;23.80;65.10;;;;;;5032762;28;20199;-56
2023/08/21 08:39:13;;;;;;;1.73;0.90;;;23.80;65.10;;;;;;5032516;28;20200;-56
2023/08/21 08:42:06;;;;;;;1.00;0.90;;;23.80;65.10;;;;;;5032117;28;20211;-57
2023/08/21 08:44:32;;;;;;;1.48;0.77;;;23.80;65.20;;;;;;5030785;28;20239;-57
2023/08/21 08:46:58;;;;;;;1.60;0.88;;;23.80;65.20;;;;;;5031215;28;20172;-55
2023/08/21 08:49:24;;;;;;;0.60;0.60;;;23.80;65.20;;;;;;5030529;28;20188;-55
2023/08/21 08:51:53;;;;;;;2.85;1.30;;;23.90;65.20;;;;;;5031464;28;20186;-55
2023/08/21 08:54:20;;;;;;;2.25;1.10;;;23.80;65.20;;;;;;5032468;28;20244;-56
2023/08/21 08:56:46;;;;;;;1.63;0.80;;;23.90;66.10;;;;;;5031887;28;20172;-54
2023/08/21 08:59:15;;;;;;;1.05;1.00;;;23.90;65.20;;;;;;5032244;28;20179;-56
2023/08/21 09:01:41;;;;;;;1.65;0.90;;;23.90;65.20;;;;;;5032530;28;20210;-57
2023/08/21 09:04:07;;;;;;;2.00;1.10;;;23.90;65.20;;;;;;5031738;28;20180;-54
2023/08/21 09:06:36;;;;;;;0.73;0.70;;;23.90;65.20;;;;;;5031365;28;20534;-58
2023/08/21 09:09:02;;;;;;;1.95;0.90;;;23.90;65.20;;;;;;5032135;28;20171;-57
2023/08/21 09:11:27;;;;;;;2.58;1.00;;;23.90;65.20;;;;;;5031710;28;20182;-55
2023/08/21 09:13:54;;;;;;;1.42;0.90;;;23.90;65.20;;;;;;5032323;28;20222;-53
2023/08/21 09:16:20;;;;;;;1.58;0.88;;;23.90;65.10;;;;;;5032060;28;20179;-51
2023/08/21 09:18:47;;;;;;;2.25;1.10;;;24.00;65.10;;;;;;5034904;28;20267;-57
2023/08/21 09:21:18;;;;;;;1.88;1.08;;;24.00;65.00;;;;;;5035846;28;20198;-55
2023/08/21 09:23:45;;;;;;;1.60;1.10;;;24.00;65.00;;;;;;5035574;28;20260;-56
2023/08/21 09:26:19;;;;;;;2.47;1.25;;;24.00;64.90;;;;;;5035811;28;20255;-54
2023/08/21 09:28:44;;;;;;;2.35;1.38;;;24.10;64.80;;;;;;5034908;28;20984;-51
2023/08/21 09:31:10;;;;;;;1.58;0.93;;;24.10;64.80;;;;;;5034923;28;20191;-54
2023/08/21 09:33:36;;;;;;;1.73;0.93;;;24.10;64.70;;;;;;5036198;28;20172;-53
2023/08/21 09:36:02;;;;;;;1.15;0.93;;;24.20;64.80;;;;;;5035651;28;20239;-56
2023/08/21 09:38:28;;;;;;;1.70;1.30;;;24.20;64.80;;;;;;5033765;28;20176;-55
2023/08/21 09:40:54;;;;;;;1.67;0.90;;;24.20;64.80;;;;;;5035767;28;20635;-58
2023/08/21 09:43:23;;;;;;;2.17;1.10;;;24.20;64.80;;;;;;5035072;28;20212;-56
2023/08/21 09:45:55;;;;;;;3.42;1.10;;;24.20;64.80;;;;;;5034931;28;20297;-59
2023/08/21 09:48:27;;;;;;;1.40;0.80;;;24.20;64.90;;;;;;5035358;28;20172;-56
2023/08/21 09:50:53;;;;;;;1.27;1.17;;;24.20;64.90;;;;;;5035831;28;20226;-56
2023/08/21 09:53:20;;;;;;;1.73;0.93;;;24.20;65.00;;;;;;5034608;28;20180;-58
2023/08/21 09:55:46;;;;;;;2.47;1.20;;;24.20;65.10;;;;;;5035948;28;20176;-55
2023/08/21 09:58:12;;;;;;;0.70;0.70;;;24.30;65.00;;;;;;5035097;28;20210;-56
2023/08/21 10:00:38;;;;;;;1.75;1.10;;;24.30;64.90;;;;;;5033467;28;20175;-56
2023/08/21 10:03:07;;;;;;;1.42;0.82;;;24.30;64.80;;;;;;5034928;28;20215;-57
2023/08/21 10:05:34;;;;;;;1.33;0.80;;;24.30;64.80;;;;;;5035351;28;20187;-56
2023/08/21 10:08:02;;;;;;;1.98;0.98;;;24.30;64.80;;;;;;5034019;28;20216;-59
2023/08/21 10:10:34;;;;;;;1.05;0.70;;;24.30;64.80;;;;;;5035182;28;20253;-56
2023/08/21 10:13:00;;;;;;;1.38;0.82;;;24.30;64.90;;;;;;5034239;28;20187;-56
2023/08/21 10:15:30;;;;;;;1.77;0.77;;;24.30;64.90;;;;;;5035356;28;20199;-57
2023/08/21 10:17:56;;;;;;;2.53;1.08;;;24.30;65.00;;;;;;5034035;28;20512;-56
2023/08/21 10:20:25;;;;;;;1.60;1.30;;;24.30;65.10;;;;;;5034111;28;20266;-57
2023/08/21 10:22:54;;;;;;;1.90;0.85;;;24.30;65.20;;;;;;5034684;28;20207;-57
2023/08/21 10:25:26;;;;;;;1.35;0.95;;;24.30;65.20;;;;;;5034665;28;20180;-55
2023/08/21 10:27:55;;;;;;;1.25;0.85;;;24.30;65.10;;;;;;5033981;28;20176;-54
2023/08/21 10:30:30;;;;;;;1.02;0.80;;;24.40;65.10;;;;;;5034416;28;20195;-55
2023/08/21 10:32:58;;;;;;;1.67;0.70;;;24.40;65.10;;;;;;5034987;28;20608;-57
2023/08/21 10:35:26;;;;;;;1.27;0.90;;;24.40;65.00;;;;;;5033740;28;20172;-57
2023/08/21 10:38:15;;;;;;;0.90;0.90;;;24.50;65.10;;;;;;5033370;28;20176;-58
2023/08/21 10:40:43;;;;;;;1.52;0.73;;;24.50;65.00;;;;;;5034642;28;20623;-58
2023/08/21 10:43:45;;;;;;;1.67;1.00;;;24.50;64.90;;;;;;5032236;28;20222;-58
2023/08/21 10:46:12;;;;;;;1.13;0.90;;;24.50;64.90;;;;;;5034112;28;20219;-56
2023/08/21 10:48:38;;;;;;;2.00;1.15;;;24.50;64.90;;;;;;5044668;28;20215;-58
2023/08/21 10:51:07;;;;;;;2.30;0.93;;;24.60;65.00;;;;;;5053864;28;20206;-58
2023/08/21 10:53:33;;;;;;;3.60;0.95;;;24.60;65.10;;;;;;5053921;28;20198;-57
2023/08/21 10:56:02;;;;;;;2.35;1.00;;;24.60;65.20;;;;;;5052749;28;20198;-57
2023/08/21 10:58:28;;;;;;;3.05;1.33;;;24.60;65.40;;;;;;5054294;28;20179;-58
2023/08/21 11:00:58;;;;;;;3.40;1.17;;;24.60;65.50;;;;;;5054157;28;20224;-58
2023/08/21 11:03:24;;;;;;;5.65;1.35;;;24.60;65.50;;;;;;5053523;28;20276;-59
2023/08/21 11:06:03;;;;;;;4.35;1.17;;;24.60;65.60;;;;;;5054203;28;20551;-58
2023/08/21 11:08:28;;;;;;;6.50;1.40;;;24.60;66.00;;;;;;5053927;28;20190;-57
2023/08/21 11:10:54;;;;;;;3.95;0.93;;;24.60;67.00;;;;;;5053498;28;20254;-57
2023/08/21 11:13:22;;;;;;;6.40;1.52;;;24.60;66.10;;;;;;5053904;28;20182;-57
2023/08/21 11:15:48;;;;;;;8.98;1.40;;;24.50;66.30;;;;;;5052981;28;20176;-57
2023/08/21 11:18:14;;;;;;;3.70;1.33;;;24.60;67.10;;;;;;5052568;28;20582;-56
2023/08/21 11:20:39;;;;;;;4.63;1.45;;;24.60;66.20;;;;;;5053822;28;20541;-55
2023/08/21 11:23:06;;;;;;;3.63;1.20;;;24.60;66.10;;;;;;5052751;28;20651;-58
2023/08/21 11:25:38;;;;;;;6.35;1.20;;;24.60;66.00;;;;;;5053974;28;20217;-56
2023/08/21 11:28:04;;;;;;;2.90;1.00;;;24.70;66.00;;;;;;5052335;28;20176;-54
2023/08/21 11:30:32;;;;;;;3.60;1.17;;;24.70;66.00;;;;;;5051677;28;20175;-54
2023/08/21 11:33:11;;;;;;;1.50;1.10;;;24.70;65.90;;;;;;5053377;28;20175;-55
2023/08/21 11:35:40;;;;;;;6.70;1.30;;;24.70;65.90;;;;;;5053509;28;20191;-59
2023/08/21 11:38:05;;;;;;;4.00;1.17;;;24.70;65.80;;;;;;5051483;28;20597;-59
2023/08/21 11:40:35;;;;;;;3.53;1.17;;;24.70;65.80;;;;;;5053234;28;20650;-59
2023/08/21 11:43:01;;;;;;;2.90;1.23;;;24.70;65.80;;;;;;5052993;28;20746;-59
2023/08/21 11:45:27;;;;;;;4.85;1.30;;;24.70;65.70;;;;;;5052316;28;20227;-58
2023/08/21 11:47:58;;;;;;;3.08;1.38;;;24.70;65.70;;;;;;5051942;28;20186;-58
2023/08/21 11:50:27;;;;;;;6.20;1.42;;;24.80;65.70;;;;;;5052019;28;20179;-57
2023/08/21 11:52:52;;;;;;;5.20;1.23;;;24.80;65.80;;;;;;5051571;28;20190;-55
2023/08/21 11:55:18;;;;;;;3.72;1.65;;;24.80;65.80;;;;;;5052838;28;20167;-58
2023/08/21 11:57:51;;;;;;;2.70;1.30;;;24.80;65.70;;;;;;5053157;28;20186;-58
2023/08/21 12:00:18;;;;;;;4.28;1.38;;;24.80;65.70;;;;;;5052072;28;20186;-59
2023/08/21 12:02:59;;;;;;;3.30;1.08;;;24.80;65.60;;;;;;5052789;28;20215;-59
2023/08/21 12:05:25;;;;;;;2.15;1.33;;;24.90;65.60;;;;;;5051031;28;20167;-59
2023/08/21 12:07:51;;;;;;;2.53;1.30;;;24.80;65.60;;;;;;5053032;28;20231;-58
2023/08/21 12:10:28;;;;;;;3.65;1.27;;;24.90;65.60;;;;;;5052641;28;20632;-59
2023/08/21 12:12:54;;;;;;;4.22;1.67;;;24.90;65.60;;;;;;5052345;28;20178;-57
2023/08/21 12:15:19;;;;;;;5.10;1.67;;;24.90;65.60;;;;;;5052286;28;20202;-54
2023/08/21 12:17:45;;;;;;;5.20;1.63;;;24.90;66.40;;;;;;5053052;28;20186;-54
2023/08/21 12:20:11;;;;;;;6.65;1.35;;;24.90;65.60;;;;;;5051842;28;20249;-59
2023/08/21 12:22:38;;;;;;;3.47;1.38;;;24.90;65.60;;;;;;5052818;28;20210;-59
2023/08/21 12:25:04;;;;;;;3.88;1.42;;;24.90;65.60;;;;;;5052210;28;20197;-59
2023/08/21 12:27:30;;;;;;;2.63;1.42;;;24.90;65.60;;;;;;5052054;28;20186;-58
2023/08/21 12:29:56;;;;;;;5.38;1.80;;;24.90;65.60;;;;;;5052703;28;20170;-57
2023/08/21 12:32:22;;;;;;;2.40;1.20;;;24.90;65.60;;;;;;5052299;28;20574;-58
2023/08/21 12:34:48;;;;;;;2.58;1.65;;;24.90;65.60;;;;;;5052064;28;20167;-58
2023/08/21 12:37:14;;;;;;;3.60;1.25;;;24.90;65.60;;;;;;5052289;28;20175;-56
2023/08/21 12:39:39;;;;;;;6.45;1.67;;;24.90;65.60;;;;;;5052395;28;20613;-57
2023/08/21 12:42:07;;;;;;;3.90;1.17;;;24.90;65.70;;;;;;5051343;28;20206;-55
2023/08/21 12:44:36;;;;;;;3.97;1.63;;;24.90;65.70;;;;;;5052346;28;20222;-58
2023/08/21 12:47:02;;;;;;;5.40;1.75;;;24.90;65.70;;;;;;5052413;28;20222;-54